Time;durP1;ratioP1;P1;durP2;ratioP2;P2;SDS_P1;SDS_P2;PMS_P1;PMS_P2;Temp;Humidity;BMP_temperature;BMP_pressure;BME280_temperature;BME280_humidity;BME280_pressure;Samples;Min_cycle;Max_cycle;Signal;HPM_P1;HPM_P2
2023/04/14 00:00:33;;;;;;;10.05;4.75;;;7.50;99.90;;;;;;4962066;28;20031;-74
2023/04/14 00:03:02;;;;;;;11.13;5.47;;;7.50;99.90;;;;;;4961887;28;20082;-74
2023/04/14 00:05:32;;;;;;;7.75;3.83;;;7.50;99.90;;;;;;4945273;29;20380;-73
2023/04/14 00:07:58;;;;;;;12.50;3.47;;;7.60;99.90;;;;;;4962141;28;20082;-74
2023/04/14 00:10:24;;;;;;;6.22;3.78;;;7.60;99.90;;;;;;4961984;28;20035;-74
2023/04/14 00:12:50;;;;;;;8.95;4.60;;;7.60;99.90;;;;;;4962044;28;20055;-73
2023/04/14 00:15:16;;;;;;;12.43;4.43;;;7.60;99.90;;;;;;4962006;28;20459;-74
2023/04/14 00:17:42;;;;;;;9.82;3.67;;;7.60;99.90;;;;;;4962119;29;20023;-74
2023/04/14 00:20:08;;;;;;;17.08;5.50;;;7.50;99.90;;;;;;4960064;28;20035;-74
2023/04/14 00:22:34;;;;;;;8.35;4.80;;;7.60;99.90;;;;;;4961856;28;20118;-74
2023/04/14 00:25:00;;;;;;;8.48;4.15;;;7.60;99.90;;;;;;4961703;28;20082;-74
2023/04/14 00:27:26;;;;;;;7.53;3.67;;;7.60;99.90;;;;;;4961750;29;20023;-73
2023/04/14 00:29:52;;;;;;;10.32;4.32;;;7.70;99.90;;;;;;4961661;28;20126;-74
2023/04/14 00:32:18;;;;;;;12.50;3.80;;;7.70;99.90;;;;;;4961730;28;20039;-73
2023/04/14 00:34:43;;;;;;;8.43;3.95;;;7.70;99.90;;;;;;4961283;28;20033;-73
2023/04/14 00:37:09;;;;;;;11.60;4.07;;;7.70;99.90;;;;;;4961548;28;20038;-74
2023/04/14 00:39:35;;;;;;;6.38;3.85;;;7.70;99.90;;;;;;4961551;28;20107;-73
2023/04/14 00:42:01;;;;;;;10.20;4.28;;;7.70;99.90;;;;;;4961564;28;20059;-73
2023/04/14 00:44:27;;;;;;;14.85;4.18;;;7.80;99.90;;;;;;4961586;28;20027;-73
2023/04/14 00:46:53;;;;;;;7.10;3.83;;;7.70;99.90;;;;;;4961574;28;20031;-74
2023/04/14 00:49:19;;;;;;;8.02;4.22;;;7.80;99.90;;;;;;4960975;28;20027;-74
2023/04/14 00:51:46;;;;;;;8.98;3.33;;;7.80;99.90;;;;;;4961384;29;20027;-72
2023/04/14 00:54:14;;;;;;;10.75;4.40;;;7.80;99.90;;;;;;4961257;28;20015;-74
2023/04/14 00:56:40;;;;;;;6.13;4.05;;;7.80;99.90;;;;;;4961499;28;20082;-73
2023/04/14 00:59:06;;;;;;;8.50;3.72;;;7.80;99.90;;;;;;4959191;28;20436;-73
2023/04/14 01:01:36;;;;;;;10.27;4.93;;;7.80;99.90;;;;;;4960036;29;20027;-73
2023/04/14 01:04:01;;;;;;;7.28;3.42;;;7.90;99.90;;;;;;4960727;28;20440;-74
2023/04/14 01:06:28;;;;;;;10.02;4.85;;;7.90;99.90;;;;;;4961289;29;20030;-74
2023/04/14 01:08:54;;;;;;;12.00;4.60;;;7.90;99.90;;;;;;4960954;28;20102;-74
2023/04/14 01:11:44;;;;;;;8.18;4.40;;;8.00;99.90;;;;;;4961172;29;20571;-73
2023/04/14 01:14:20;;;;;;;6.55;3.72;;;8.00;99.90;;;;;;4958437;29;20871;-74
2023/04/14 01:16:49;;;;;;;12.70;3.95;;;8.00;99.90;;;;;;4961006;28;20019;-73
2023/04/14 01:19:40;;;;;;;8.88;4.22;;;8.10;99.90;;;;;;4960508;28;20549;-73
2023/04/14 01:22:09;;;;;;;6.93;3.47;;;8.10;99.90;;;;;;4958983;29;20541;-72
2023/04/14 01:25:06;;;;;;;10.80;5.70;;;8.10;99.90;;;;;;4960728;28;20024;-73
2023/04/14 01:28:08;;;;;;;7.63;3.22;;;8.10;99.90;;;;;;4959526;28;20032;-73
2023/04/14 01:30:55;;;;;;;10.85;3.55;;;8.10;99.90;;;;;;4959286;29;20027;-73
2023/04/14 01:33:24;;;;;;;8.35;3.70;;;8.10;99.90;;;;;;4953859;29;20031;-72
2023/04/14 01:35:54;;;;;;;6.45;3.38;;;8.10;99.90;;;;;;4960614;29;20037;-73
2023/04/14 01:38:27;;;;;;;5.90;2.90;;;8.00;99.90;;;;;;4960597;29;20415;-73
2023/04/14 01:40:58;;;;;;;8.35;3.92;;;7.90;99.90;;;;;;4959125;28;20039;-73
2023/04/14 01:43:29;;;;;;;5.00;3.55;;;7.80;99.90;;;;;;4959100;28;20023;-73
2023/04/14 01:45:59;;;;;;;9.57;3.53;;;7.80;99.90;;;;;;4960422;28;20023;-73
2023/04/14 01:48:25;;;;;;;8.07;3.67;;;7.70;99.90;;;;;;4959979;28;20032;-73
2023/04/14 01:50:53;;;;;;;8.10;4.05;;;7.70;99.90;;;;;;4960220;28;20050;-74
2023/04/14 01:53:20;;;;;;;6.22;3.60;;;7.70;99.90;;;;;;4960236;28;20515;-74
2023/04/14 01:55:48;;;;;;;8.43;3.90;;;7.70;99.90;;;;;;4960203;28;20027;-74
2023/04/14 01:58:16;;;;;;;5.53;3.72;;;7.70;99.90;;;;;;4960132;29;20034;-74
2023/04/14 02:00:44;;;;;;;6.05;3.78;;;7.70;99.90;;;;;;4959969;28;20042;-74
2023/04/14 02:03:11;;;;;;;12.07;4.13;;;7.70;99.90;;;;;;4959878;28;20082;-74
2023/04/14 02:05:38;;;;;;;6.85;4.00;;;7.60;99.90;;;;;;4959418;28;20023;-74
2023/04/14 02:08:11;;;;;;;11.18;3.55;;;7.60;99.90;;;;;;4958556;28;20030;-74
2023/04/14 02:10:40;;;;;;;7.35;3.85;;;7.60;99.90;;;;;;4959039;28;20015;-74
2023/04/14 02:13:07;;;;;;;10.90;4.03;;;7.60;99.90;;;;;;4959826;28;20511;-74
2023/04/14 02:15:34;;;;;;;11.38;4.25;;;7.60;99.90;;;;;;4959879;29;20031;-74
2023/04/14 02:18:03;;;;;;;9.73;4.63;;;7.60;99.90;;;;;;4951826;29;20024;-74
2023/04/14 02:20:28;;;;;;;7.22;3.90;;;7.60;99.90;;;;;;4955282;28;20060;-74
2023/04/14 02:22:54;;;;;;;10.68;3.90;;;7.60;99.90;;;;;;4959744;29;20369;-74
2023/04/14 02:25:24;;;;;;;4.80;3.72;;;7.70;99.90;;;;;;4959623;29;20027;-73
2023/04/14 02:27:50;;;;;;;9.25;3.63;;;7.60;99.90;;;;;;4959674;28;20070;-74
2023/04/14 02:30:25;;;;;;;6.60;3.65;;;7.60;99.90;;;;;;4959610;29;20031;-74
2023/04/14 02:33:14;;;;;;;13.75;4.15;;;7.60;99.90;;;;;;4958087;28;20027;-74
2023/04/14 02:35:51;;;;;;;15.52;3.88;;;7.60;99.90;;;;;;4959478;28;20053;-74
2023/04/14 02:38:31;;;;;;;9.98;3.75;;;7.60;99.90;;;;;;4959474;28;20087;-74
2023/04/14 02:40:59;;;;;;;9.43;5.60;;;7.60;99.90;;;;;;4959447;28;20031;-74
2023/04/14 02:43:31;;;;;;;4.95;3.55;;;7.50;99.90;;;;;;4959280;28;20025;-74
2023/04/14 02:45:59;;;;;;;6.38;3.83;;;7.60;99.90;;;;;;4959736;29;20543;-74
2023/04/14 02:48:27;;;;;;;10.13;3.92;;;7.50;99.90;;;;;;4958847;28;20048;-74
2023/04/14 02:50:55;;;;;;;6.70;4.07;;;7.50;99.90;;;;;;4959505;28;20035;-74
2023/04/14 02:53:23;;;;;;;10.10;4.05;;;7.50;99.90;;;;;;4957838;29;20023;-74
2023/04/14 02:55:53;;;;;;;7.53;3.78;;;7.60;99.90;;;;;;4959505;28;20023;-74
2023/04/14 02:58:20;;;;;;;10.02;3.80;;;7.50;99.90;;;;;;4946882;29;20023;-74
2023/04/14 03:00:46;;;;;;;9.93;3.90;;;7.60;99.90;;;;;;4958580;28;20399;-74
2023/04/14 03:03:12;;;;;;;8.02;3.75;;;7.60;99.90;;;;;;4957390;28;20016;-74
2023/04/14 03:05:42;;;;;;;6.18;3.60;;;7.60;99.90;;;;;;4958164;29;20027;-74
2023/04/14 03:08:10;;;;;;;11.98;4.03;;;7.60;99.90;;;;;;4959053;28;20503;-74
2023/04/14 03:10:37;;;;;;;4.80;3.40;;;7.60;99.90;;;;;;4958691;28;20542;-74
2023/04/14 03:13:05;;;;;;;6.85;3.58;;;7.60;99.90;;;;;;4959135;28;20107;-74
2023/04/14 03:15:32;;;;;;;12.50;3.63;;;7.60;99.90;;;;;;4957402;28;20106;-74
2023/04/14 03:17:58;;;;;;;7.28;3.65;;;7.60;99.90;;;;;;4958792;28;20064;-74
2023/04/14 03:20:25;;;;;;;13.95;4.35;;;7.60;99.90;;;;;;4958214;28;20114;-74
2023/04/14 03:23:05;;;;;;;5.63;3.38;;;7.70;99.90;;;;;;4959154;28;20019;-74
2023/04/14 03:25:36;;;;;;;6.20;3.40;;;7.60;99.90;;;;;;4958755;28;20031;-74
2023/04/14 03:28:06;;;;;;;16.58;3.85;;;7.70;99.90;;;;;;4958829;28;20623;-74
2023/04/14 03:30:35;;;;;;;8.77;3.97;;;7.70;99.90;;;;;;4958667;28;20027;-73
2023/04/14 03:33:11;;;;;;;8.77;3.78;;;7.70;99.90;;;;;;4957361;29;20027;-73
2023/04/14 03:35:37;;;;;;;12.52;4.53;;;7.70;99.90;;;;;;4958783;28;20026;-74
2023/04/14 03:38:07;;;;;;;4.40;3.47;;;7.80;99.90;;;;;;4958908;29;20027;-74
2023/04/14 03:40:37;;;;;;;6.93;3.60;;;7.80;99.90;;;;;;4946553;28;20030;-74
2023/04/14 03:43:06;;;;;;;7.57;3.53;;;7.80;99.90;;;;;;4958672;28;20031;-74
2023/04/14 03:45:32;;;;;;;10.00;3.35;;;7.80;99.90;;;;;;4957544;29;20058;-74
2023/04/14 03:48:02;;;;;;;10.23;3.40;;;7.80;99.90;;;;;;4953203;28;20028;-74
2023/04/14 03:50:35;;;;;;;7.60;3.67;;;7.70;99.90;;;;;;4958420;28;20079;-74
2023/04/14 03:53:03;;;;;;;7.32;3.92;;;7.70;99.90;;;;;;4957447;28;20055;-73
2023/04/14 03:55:32;;;;;;;6.03;4.30;;;7.70;99.90;;;;;;4957507;29;20055;-74
2023/04/14 03:58:00;;;;;;;5.07;2.92;;;7.70;99.90;;;;;;4957909;28;20028;-74
2023/04/14 04:00:26;;;;;;;6.40;3.63;;;7.70;99.90;;;;;;4958559;28;20369;-74
2023/04/14 04:02:56;;;;;;;10.90;3.67;;;7.70;99.90;;;;;;4958079;28;20030;-74
2023/04/14 04:05:22;;;;;;;4.55;3.30;;;7.70;99.90;;;;;;4956528;29;20499;-74
2023/04/14 04:07:52;;;;;;;5.78;3.35;;;7.70;99.90;;;;;;4957333;28;20023;-74
2023/04/14 04:10:20;;;;;;;10.60;3.08;;;7.70;99.90;;;;;;4958628;29;20119;-74
2023/04/14 04:12:47;;;;;;;7.22;3.25;;;7.70;99.90;;;;;;4958219;28;20023;-74
2023/04/14 04:15:13;;;;;;;8.07;3.20;;;7.70;99.90;;;;;;4951339;29;20023;-74
2023/04/14 04:17:41;;;;;;;7.57;2.92;;;7.70;99.90;;;;;;4958065;28;20038;-74
2023/04/14 04:20:11;;;;;;;6.53;3.50;;;7.70;99.90;;;;;;4958278;28;20547;-74
2023/04/14 04:22:40;;;;;;;6.93;4.47;;;7.70;99.90;;;;;;4958056;28;20106;-73
2023/04/14 04:25:09;;;;;;;8.40;3.25;;;7.60;99.90;;;;;;4958283;29;20016;-74
2023/04/14 04:27:34;;;;;;;8.68;3.83;;;7.60;99.90;;;;;;4956999;29;20412;-74
2023/04/14 04:30:00;;;;;;;5.82;3.58;;;7.50;99.90;;;;;;4958405;29;20075;-74
2023/04/14 04:32:27;;;;;;;9.48;3.55;;;7.50;99.90;;;;;;4958301;28;20026;-73
2023/04/14 04:34:53;;;;;;;5.38;3.53;;;7.30;99.90;;;;;;4961624;28;20051;-73
2023/04/14 04:37:20;;;;;;;7.45;3.67;;;7.20;99.90;;;;;;4960184;28;20041;-74
2023/04/14 04:39:49;;;;;;;5.60;3.50;;;7.20;99.90;;;;;;4961699;28;20062;-74
2023/04/14 04:42:15;;;;;;;8.80;4.15;;;7.20;99.90;;;;;;4961577;28;20384;-74
2023/04/14 04:44:41;;;;;;;7.13;3.95;;;7.30;99.90;;;;;;4961459;29;20031;-74
2023/04/14 04:47:08;;;;;;;7.70;3.80;;;7.30;99.90;;;;;;4960424;28;20458;-74
2023/04/14 04:49:34;;;;;;;5.07;3.60;;;7.30;99.90;;;;;;4959458;28;20034;-74
2023/04/14 04:51:59;;;;;;;7.30;3.50;;;7.40;99.90;;;;;;4960232;28;20614;-74
2023/04/14 04:54:26;;;;;;;13.23;3.58;;;7.40;99.90;;;;;;4961193;28;20023;-74
2023/04/14 04:56:51;;;;;;;6.65;3.70;;;7.40;99.90;;;;;;4961593;28;20031;-74
2023/04/14 04:59:17;;;;;;;6.22;3.53;;;7.50;99.90;;;;;;4961068;28;20109;-74
2023/04/14 05:01:43;;;;;;;5.97;3.70;;;7.50;99.90;;;;;;4961207;28;20034;-74
2023/04/14 05:04:08;;;;;;;17.77;4.03;;;7.60;99.90;;;;;;4960805;28;20082;-74
2023/04/14 05:06:38;;;;;;;6.85;3.42;;;7.60;99.90;;;;;;4961267;28;20030;-74
2023/04/14 05:09:04;;;;;;;4.93;3.90;;;7.60;99.90;;;;;;4961020;28;20098;-74
2023/04/14 05:11:30;;;;;;;8.20;3.60;;;7.60;99.90;;;;;;4959890;28;20058;-74
2023/04/14 05:13:56;;;;;;;6.10;3.67;;;7.60;99.90;;;;;;4960868;28;20043;-74
2023/04/14 05:16:22;;;;;;;4.15;3.30;;;7.70;99.90;;;;;;4961062;28;20023;-73
2023/04/14 05:18:48;;;;;;;7.72;3.67;;;7.70;99.90;;;;;;4959119;28;20042;-74
2023/04/14 05:21:14;;;;;;;6.22;4.28;;;7.70;99.90;;;;;;4960740;28;20047;-74
2023/04/14 05:23:44;;;;;;;7.28;3.67;;;7.70;99.90;;;;;;4959356;28;20110;-74
2023/04/14 05:26:14;;;;;;;5.23;3.70;;;7.70;99.90;;;;;;4960869;28;20019;-74
2023/04/14 05:28:40;;;;;;;10.55;3.80;;;7.70;99.90;;;;;;4960620;28;20023;-74
2023/04/14 05:31:06;;;;;;;9.23;3.95;;;7.70;99.90;;;;;;4960764;28;20067;-74
2023/04/14 05:33:32;;;;;;;5.40;3.70;;;7.60;99.90;;;;;;4960160;28;20555;-73
2023/04/14 05:35:57;;;;;;;5.03;3.67;;;7.50;99.90;;;;;;4960690;28;20038;-74
2023/04/14 05:38:23;;;;;;;4.72;4.03;;;7.50;99.90;;;;;;4960346;28;20031;-73
2023/04/14 05:40:49;;;;;;;6.25;3.50;;;7.40;99.90;;;;;;4960553;28;20152;-74
2023/04/14 05:43:15;;;;;;;8.48;3.72;;;7.40;99.90;;;;;;4960506;28;20097;-74
2023/04/14 05:45:41;;;;;;;6.75;4.28;;;7.40;99.90;;;;;;4960504;28;20019;-74
2023/04/14 05:48:07;;;;;;;7.63;4.03;;;7.40;99.90;;;;;;4960086;28;20020;-74
2023/04/14 05:50:33;;;;;;;5.28;3.75;;;7.40;99.90;;;;;;4960587;28;20044;-74
2023/04/14 05:52:59;;;;;;;9.32;3.90;;;7.40;99.90;;;;;;4960179;28;20106;-73
2023/04/14 05:55:26;;;;;;;9.68;4.18;;;7.50;99.90;;;;;;4960381;29;20034;-74
2023/04/14 05:57:51;;;;;;;3.80;3.40;;;7.50;99.90;;;;;;4960064;28;20026;-74
2023/04/14 06:00:17;;;;;;;9.68;3.83;;;7.50;99.90;;;;;;4960194;29;20031;-74
2023/04/14 06:02:44;;;;;;;5.90;4.82;;;7.60;99.90;;;;;;4958256;28;20110;-74
2023/04/14 06:05:11;;;;;;;10.15;3.78;;;7.70;99.90;;;;;;4959975;28;20464;-74
2023/04/14 06:07:37;;;;;;;5.63;3.35;;;7.90;99.90;;;;;;4958746;28;20027;-74
2023/04/14 06:10:03;;;;;;;9.23;4.35;;;8.00;99.90;;;;;;4960170;28;20031;-74
2023/04/14 06:12:29;;;;;;;6.55;3.72;;;8.20;99.90;;;;;;4959696;28;20027;-73
2023/04/14 06:14:55;;;;;;;5.95;4.03;;;8.30;99.90;;;;;;4958476;28;20094;-74
2023/04/14 06:17:21;;;;;;;7.65;3.33;;;8.40;99.90;;;;;;4959811;28;20050;-74
2023/04/14 06:19:49;;;;;;;9.98;4.47;;;8.50;99.90;;;;;;4959418;28;21293;-74
2023/04/14 06:22:18;;;;;;;9.30;4.30;;;8.50;99.90;;;;;;4959477;28;20515;-74
2023/04/14 06:24:47;;;;;;;7.65;3.78;;;8.50;99.90;;;;;;4959706;28;20050;-74
2023/04/14 06:27:13;;;;;;;4.68;3.47;;;8.60;99.90;;;;;;4956921;28;20090;-74
2023/04/14 06:29:39;;;;;;;6.68;3.42;;;8.70;99.90;;;;;;4958410;28;20051;-74
2023/04/14 06:32:05;;;;;;;9.25;4.18;;;8.80;99.90;;;;;;4959446;28;20496;-74
2023/04/14 06:34:30;;;;;;;6.10;3.63;;;8.80;99.90;;;;;;4959262;28;20031;-74
2023/04/14 06:36:57;;;;;;;4.57;3.35;;;8.90;99.90;;;;;;4959310;28;20031;-74
2023/04/14 06:39:23;;;;;;;8.95;3.40;;;9.00;99.90;;;;;;4959439;28;20027;-74
2023/04/14 06:41:49;;;;;;;10.90;3.15;;;9.00;99.90;;;;;;4959354;28;20031;-74
2023/04/14 06:44:15;;;;;;;7.53;3.47;;;9.20;99.90;;;;;;4958185;28;20514;-74
2023/04/14 06:46:41;;;;;;;5.57;3.70;;;9.30;99.90;;;;;;4957601;28;20023;-73
2023/04/14 06:49:07;;;;;;;3.90;3.17;;;9.50;99.90;;;;;;4957687;29;20114;-74
2023/04/14 06:51:33;;;;;;;8.82;3.80;;;9.60;99.90;;;;;;4959069;28;20016;-74
2023/04/14 06:53:59;;;;;;;6.45;3.35;;;9.60;99.90;;;;;;4958002;28;20031;-74
2023/04/14 06:56:25;;;;;;;5.50;3.08;;;9.70;99.90;;;;;;4957424;28;20050;-74
2023/04/14 06:58:50;;;;;;;8.32;3.25;;;9.90;99.90;;;;;;4959106;28;20031;-74
2023/04/14 07:01:16;;;;;;;8.05;3.05;;;9.90;99.90;;;;;;4956463;28;20049;-74
2023/04/14 07:03:42;;;;;;;4.63;2.97;;;10.00;99.90;;;;;;4957892;29;20511;-74
2023/04/14 07:06:10;;;;;;;9.25;3.90;;;10.10;99.90;;;;;;4958985;28;20026;-75
2023/04/14 07:08:37;;;;;;;6.68;3.75;;;10.20;99.90;;;;;;4958972;28;20019;-74
2023/04/14 07:11:05;;;;;;;7.07;3.17;;;10.30;99.90;;;;;;4958945;28;20487;-74
2023/04/14 07:13:31;;;;;;;6.15;3.13;;;10.40;99.90;;;;;;4957495;28;20027;-74
2023/04/14 07:15:58;;;;;;;10.15;3.28;;;10.50;99.90;;;;;;4958795;29;20095;-74
2023/04/14 07:18:23;;;;;;;7.63;3.03;;;10.50;99.90;;;;;;4958581;29;20468;-74
2023/04/14 07:20:55;;;;;;;5.50;3.00;;;10.60;99.90;;;;;;4958409;28;20057;-75
2023/04/14 07:23:21;;;;;;;12.88;3.40;;;10.60;99.90;;;;;;4957683;28;20031;-74
2023/04/14 07:25:53;;;;;;;5.25;2.90;;;10.80;99.90;;;;;;4958724;28;20020;-74
2023/04/14 07:28:20;;;;;;;5.57;3.00;;;11.00;99.90;;;;;;4957297;28;20112;-74
2023/04/14 07:30:47;;;;;;;7.93;3.95;;;11.10;99.90;;;;;;4945449;29;20035;-74
2023/04/14 07:33:13;;;;;;;10.27;4.20;;;11.00;99.90;;;;;;4956953;28;20031;-74
2023/04/14 07:35:39;;;;;;;5.07;3.05;;;11.00;99.90;;;;;;4958631;28;20480;-74
2023/04/14 07:38:05;;;;;;;5.82;2.88;;;11.00;99.90;;;;;;4958310;28;20059;-74
2023/04/14 07:40:31;;;;;;;4.53;2.83;;;11.10;99.90;;;;;;4958285;28;20030;-74
2023/04/14 07:42:56;;;;;;;13.10;3.60;;;11.30;99.90;;;;;;4958271;28;20023;-73
2023/04/14 07:45:22;;;;;;;5.45;3.03;;;11.20;99.90;;;;;;4957609;28;20712;-74
2023/04/14 07:47:48;;;;;;;3.42;2.60;;;11.20;99.90;;;;;;4958385;29;20053;-74
2023/04/14 07:50:14;;;;;;;6.65;3.58;;;11.30;99.90;;;;;;4958477;28;20510;-74
2023/04/14 07:52:40;;;;;;;5.80;3.03;;;11.50;99.90;;;;;;4958309;28;20038;-74
2023/04/14 07:55:06;;;;;;;10.85;3.22;;;11.70;99.90;;;;;;4958485;28;20027;-74
2023/04/14 07:57:34;;;;;;;8.52;2.95;;;11.80;99.90;;;;;;4957994;28;20034;-74
2023/04/14 08:00:00;;;;;;;8.13;3.05;;;11.90;99.90;;;;;;4958608;28;20027;-74
2023/04/14 08:02:26;;;;;;;6.32;2.70;;;11.80;99.90;;;;;;4956796;28;20037;-74
2023/04/14 08:04:52;;;;;;;4.50;2.42;;;11.90;99.90;;;;;;4958450;28;20027;-74
2023/04/14 08:07:18;;;;;;;4.68;2.53;;;11.80;99.90;;;;;;4958107;28;20027;-74
2023/04/14 08:09:44;;;;;;;5.32;2.47;;;11.80;99.90;;;;;;4962385;28;20038;-74
2023/04/14 08:12:10;;;;;;;4.28;2.55;;;11.70;99.90;;;;;;4960982;28;20062;-74
2023/04/14 08:14:35;;;;;;;4.68;2.67;;;11.70;99.90;;;;;;4961110;28;20101;-72
2023/04/14 08:17:01;;;;;;;5.75;2.47;;;11.80;99.90;;;;;;4961930;28;20403;-74
2023/04/14 08:19:27;;;;;;;7.28;2.35;;;11.90;99.90;;;;;;4960308;28;20035;-74
2023/04/14 08:21:53;;;;;;;4.20;3.25;;;12.00;99.90;;;;;;4961862;28;20062;-74
2023/04/14 08:24:18;;;;;;;3.50;2.35;;;12.10;99.90;;;;;;4961947;28;20034;-74
2023/04/14 08:26:44;;;;;;;5.32;2.33;;;12.10;99.90;;;;;;4957097;28;20039;-74
2023/04/14 08:29:10;;;;;;;3.95;2.30;;;12.30;99.90;;;;;;4961648;28;20522;-74
2023/04/14 08:31:36;;;;;;;3.40;2.83;;;12.40;99.90;;;;;;4945561;28;20318;-74
2023/04/14 08:34:02;;;;;;;3.25;2.40;;;12.60;99.90;;;;;;4962735;28;20455;-74
2023/04/14 08:36:27;;;;;;;3.13;2.10;;;12.60;99.90;;;;;;4967561;28;20020;-74
2023/04/14 08:38:53;;;;;;;3.28;2.20;;;12.90;99.90;;;;;;4962344;28;20384;-74
2023/04/14 08:41:21;;;;;;;3.03;2.35;;;13.10;99.90;;;;;;4971556;28;20035;-75
2023/04/14 08:43:47;;;;;;;4.13;2.20;;;13.00;99.90;;;;;;4963753;28;20048;-74
2023/04/14 08:46:15;;;;;;;5.32;2.20;;;13.10;99.90;;;;;;4971131;28;20152;-75
2023/04/14 08:48:44;;;;;;;4.10;2.38;;;13.10;99.90;;;;;;4976622;28;20023;-74
2023/04/14 08:51:19;;;;;;;2.80;2.00;;;13.10;99.90;;;;;;4976334;28;20058;-74
2023/04/14 08:53:47;;;;;;;4.93;2.22;;;13.00;99.90;;;;;;4972851;28;20464;-73
2023/04/14 08:56:15;;;;;;;2.33;2.13;;;12.90;99.90;;;;;;4977426;28;20023;-74
2023/04/14 08:58:41;;;;;;;3.05;1.95;;;12.70;99.90;;;;;;4969296;28;20027;-73
2023/04/14 09:01:08;;;;;;;4.40;2.35;;;12.70;99.90;;;;;;4962810;28;20042;-74
2023/04/14 09:03:34;;;;;;;3.22;2.60;;;12.50;99.90;;;;;;4974023;28;20019;-74
2023/04/14 09:06:01;;;;;;;3.17;2.42;;;12.40;99.90;;;;;;4972429;28;20039;-73
2023/04/14 09:08:27;;;;;;;5.15;2.15;;;12.30;99.90;;;;;;4940682;28;20030;-77
2023/04/14 09:10:53;;;;;;;6.47;2.30;;;12.20;99.90;;;;;;4955766;28;20032;-74
2023/04/14 09:13:21;;;;;;;3.63;2.25;;;12.00;99.90;;;;;;4975555;28;20153;-75
2023/04/14 09:15:48;;;;;;;3.72;2.53;;;11.90;99.90;;;;;;4973241;28;20027;-74
2023/04/14 09:18:15;;;;;;;3.10;2.08;;;11.90;99.90;;;;;;4971401;28;20506;-72
2023/04/14 09:20:40;;;;;;;2.67;2.15;;;11.90;99.90;;;;;;4956722;28;20074;-73
2023/04/14 09:23:09;;;;;;;2.47;2.28;;;12.00;99.90;;;;;;4974262;28;20027;-74
2023/04/14 09:25:36;;;;;;;2.67;2.00;;;12.00;99.90;;;;;;4970735;28;20038;-74
2023/04/14 09:28:02;;;;;;;3.20;2.50;;;12.10;99.90;;;;;;4970940;28;20023;-75
2023/04/14 09:30:29;;;;;;;5.47;2.20;;;12.20;99.90;;;;;;4969499;28;20031;-74
2023/04/14 09:32:55;;;;;;;2.70;2.00;;;12.20;99.90;;;;;;4972727;28;20031;-74
2023/04/14 09:35:22;;;;;;;2.13;1.80;;;12.20;99.90;;;;;;4967290;28;20041;-75
2023/04/14 09:37:47;;;;;;;2.33;2.10;;;12.00;99.90;;;;;;4956867;28;20035;-73
2023/04/14 09:40:29;;;;;;;3.80;2.30;;;12.00;99.90;;;;;;4951797;28;20090;-72
2023/04/14 09:42:56;;;;;;;2.60;2.13;;;12.00;99.90;;;;;;4959586;28;20539;-73
2023/04/14 09:45:22;;;;;;;2.85;2.30;;;12.20;99.90;;;;;;4973102;28;20030;-73
2023/04/14 09:48:04;;;;;;;4.25;2.13;;;12.50;99.90;;;;;;4971063;28;20415;-73
2023/04/14 09:50:30;;;;;;;4.35;2.67;;;12.80;99.90;;;;;;4921236;28;20034;-74
2023/04/14 09:52:56;;;;;;;2.45;2.00;;;13.20;99.90;;;;;;4957732;28;20440;-72
2023/04/14 09:55:22;;;;;;;3.40;1.95;;;13.40;99.90;;;;;;4971933;28;20519;-72
2023/04/14 09:57:48;;;;;;;3.88;1.83;;;13.30;99.90;;;;;;4970989;28;20558;-74
2023/04/14 10:00:18;;;;;;;2.03;1.85;;;13.20;99.90;;;;;;4969376;28;20708;-74
2023/04/14 10:02:56;;;;;;;2.63;1.85;;;13.00;99.90;;;;;;4962171;28;20117;-73
2023/04/14 10:05:26;;;;;;;2.50;1.50;;;13.10;99.90;;;;;;4965832;28;20392;-75
2023/04/14 10:07:52;;;;;;;2.15;1.77;;;13.20;99.90;;;;;;4962141;28;20095;-73
2023/04/14 10:10:17;;;;;;;1.85;1.75;;;13.30;99.90;;;;;;4957176;28;20523;-74
2023/04/14 10:12:44;;;;;;;1.73;1.60;;;13.10;99.90;;;;;;4961224;28;20046;-73
2023/04/14 10:15:11;;;;;;;2.88;1.90;;;13.10;99.90;;;;;;4956764;28;20039;-73
2023/04/14 10:17:38;;;;;;;1.70;1.60;;;13.10;99.90;;;;;;4961312;28;20034;-74
2023/04/14 10:20:05;;;;;;;2.15;1.55;;;13.10;99.90;;;;;;4956936;28;20023;-73
2023/04/14 10:22:31;;;;;;;1.98;1.65;;;13.10;99.90;;;;;;4965097;28;20047;-72
2023/04/14 10:25:00;;;;;;;2.08;1.80;;;13.20;99.90;;;;;;4965856;28;20057;-72
2023/04/14 10:27:31;;;;;;;1.85;1.75;;;13.30;99.90;;;;;;4983390;28;20018;-73
2023/04/14 10:29:58;;;;;;;1.95;1.77;;;13.30;99.90;;;;;;4957956;28;20043;-73
2023/04/14 10:32:26;;;;;;;2.80;1.73;;;13.30;99.90;;;;;;4966197;28;20041;-73
2023/04/14 10:35:08;;;;;;;3.70;1.90;;;13.20;99.90;;;;;;4973081;28;20502;-72
2023/04/14 10:37:34;;;;;;;1.92;1.70;;;13.20;99.90;;;;;;4950437;28;20031;-73
2023/04/14 10:40:04;;;;;;;3.17;1.90;;;13.20;99.90;;;;;;4967815;28;20082;-74
2023/04/14 10:42:50;;;;;;;2.58;2.08;;;13.20;99.90;;;;;;4972418;28;20479;-73
2023/04/14 10:45:16;;;;;;;2.78;1.88;;;13.10;99.90;;;;;;4969860;28;20027;-73
2023/04/14 10:47:44;;;;;;;4.15;1.80;;;13.20;99.90;;;;;;4974620;28;20031;-73
2023/04/14 10:50:17;;;;;;;2.88;2.17;;;13.30;99.90;;;;;;4971080;28;20427;-73
2023/04/14 10:52:53;;;;;;;2.67;2.35;;;13.30;99.90;;;;;;4973642;28;20031;-73
2023/04/14 10:55:21;;;;;;;1.80;1.70;;;13.40;99.90;;;;;;4972889;28;20026;-72
2023/04/14 10:57:47;;;;;;;1.88;1.65;;;13.70;99.90;;;;;;4970406;28;20026;-73
2023/04/14 11:00:21;;;;;;;2.90;1.90;;;13.90;99.90;;;;;;4969125;28;20085;-73
2023/04/14 11:03:02;;;;;;;2.13;1.50;;;14.20;99.90;;;;;;4970906;28;20031;-73
2023/04/14 11:05:30;;;;;;;2.03;1.73;;;14.40;99.90;;;;;;4967019;28;20109;-73
2023/04/14 11:07:57;;;;;;;1.98;1.60;;;14.60;99.90;;;;;;4971222;28;20018;-72
2023/04/14 11:10:24;;;;;;;1.48;1.38;;;14.60;99.90;;;;;;4968416;28;20090;-73
2023/04/14 11:13:00;;;;;;;2.85;1.70;;;14.60;99.90;;;;;;4972727;28;20126;-73
2023/04/14 11:15:44;;;;;;;1.50;1.40;;;14.60;99.90;;;;;;4970516;28;20475;-72
2023/04/14 11:18:14;;;;;;;2.63;1.70;;;14.50;99.90;;;;;;4964957;28;20515;-72
2023/04/14 11:20:43;;;;;;;1.55;1.42;;;14.50;99.90;;;;;;4966277;28;20653;-72
2023/04/14 11:23:13;;;;;;;2.97;1.40;;;14.60;99.90;;;;;;4967067;28;20110;-73
2023/04/14 11:25:39;;;;;;;3.63;1.73;;;14.70;99.90;;;;;;4959886;28;20030;-73
2023/04/14 11:28:05;;;;;;;1.60;1.42;;;15.10;99.90;;;;;;4969422;28;20023;-72
2023/04/14 11:30:31;;;;;;;2.70;1.50;;;15.30;99.90;;;;;;4968105;28;20012;-72
2023/04/14 11:32:57;;;;;;;1.48;1.38;;;15.40;99.90;;;;;;4966130;28;20105;-73
2023/04/14 11:35:28;;;;;;;2.25;1.30;;;15.50;99.90;;;;;;4971654;28;20057;-73
2023/04/14 11:37:58;;;;;;;1.40;1.30;;;15.50;99.90;;;;;;4974298;28;20495;-72
2023/04/14 11:40:25;;;;;;;1.67;1.20;;;15.30;99.90;;;;;;4969806;28;20027;-72
2023/04/14 11:42:58;;;;;;;1.60;1.30;;;15.30;99.90;;;;;;4971292;28;20472;-72
2023/04/14 11:45:30;;;;;;;1.40;1.30;;;15.10;99.90;;;;;;4974804;28;20053;-71
2023/04/14 11:48:03;;;;;;;1.70;1.40;;;15.10;99.90;;;;;;4972770;28;20492;-73
2023/04/14 11:50:31;;;;;;;1.58;1.48;;;15.00;99.90;;;;;;4967852;28;20093;-73
2023/04/14 11:52:58;;;;;;;1.50;1.40;;;15.10;99.90;;;;;;4972994;28;20027;-72
2023/04/14 11:55:28;;;;;;;1.40;1.30;;;15.40;99.90;;;;;;4974413;28;20530;-73
2023/04/14 11:57:55;;;;;;;1.58;1.30;;;15.70;99.90;;;;;;4974085;28;20117;-73
2023/04/14 12:00:23;;;;;;;1.70;1.42;;;15.90;99.90;;;;;;4963725;28;20033;-73
2023/04/14 12:02:49;;;;;;;1.40;1.30;;;16.00;99.90;;;;;;4972124;28;20054;-73
2023/04/14 12:05:20;;;;;;;1.50;1.40;;;16.00;99.90;;;;;;4965368;28;20683;-72
2023/04/14 12:07:47;;;;;;;1.40;1.30;;;16.00;99.90;;;;;;4969813;28;20035;-72
2023/04/14 12:10:14;;;;;;;3.83;1.42;;;16.10;99.90;;;;;;4965920;28;20568;-72
2023/04/14 12:12:40;;;;;;;2.33;1.42;;;16.20;99.90;;;;;;4973830;28;20066;-72
2023/04/14 12:15:06;;;;;;;1.83;1.50;;;16.40;99.90;;;;;;4975640;28;20031;-73
2023/04/14 12:17:32;;;;;;;1.63;1.30;;;16.50;99.90;;;;;;4970355;28;20027;-72
2023/04/14 12:19:58;;;;;;;2.60;1.70;;;16.20;99.90;;;;;;4974609;28;20034;-73
2023/04/14 12:22:28;;;;;;;3.17;1.40;;;16.20;99.90;;;;;;4971194;28;20051;-73
2023/04/14 12:24:55;;;;;;;3.17;1.40;;;16.30;99.90;;;;;;4963785;28;20023;-73
2023/04/14 12:27:23;;;;;;;1.70;1.30;;;16.50;99.90;;;;;;4963674;28;20035;-72
2023/04/14 12:29:50;;;;;;;1.85;1.30;;;16.70;99.90;;;;;;4941941;28;20483;-72
2023/04/14 12:32:16;;;;;;;2.50;1.30;;;16.60;99.90;;;;;;4974024;28;20027;-73
2023/04/14 12:34:57;;;;;;;2.60;1.27;;;16.60;99.90;;;;;;4977280;28;20410;-73
2023/04/14 12:37:27;;;;;;;1.95;1.35;;;16.40;99.90;;;;;;4940825;28;20062;-72
2023/04/14 12:39:59;;;;;;;1.45;1.20;;;16.00;99.90;;;;;;4961900;28;20082;-73
2023/04/14 12:42:26;;;;;;;1.65;1.50;;;15.40;99.90;;;;;;4952021;28;20023;-72
2023/04/14 12:44:59;;;;;;;1.42;1.27;;;14.80;99.90;;;;;;4940179;28;20024;-72
2023/04/14 12:47:29;;;;;;;1.50;1.40;;;14.40;99.90;;;;;;4968087;28;20034;-73
2023/04/14 12:49:56;;;;;;;2.58;1.73;;;14.30;99.90;;;;;;4963592;28;20023;-72
2023/04/14 12:52:39;;;;;;;2.00;1.80;;;14.30;99.90;;;;;;4975537;28;20042;-74
2023/04/14 12:55:06;;;;;;;1.67;1.55;;;14.40;99.90;;;;;;4971439;28;20019;-74